sensor_id;sensor_type;location;lat;lon;timestamp;P1;durP1;ratioP1;P2;durP2;ratioP2
40244;SDS011;25963;42.694;23.600;2023-11-18T00:01:25;5.88;;;3.78;;
40244;SDS011;25963;42.694;23.600;2023-11-18T00:03:56;6.25;;;3.88;;
40244;SDS011;25963;42.694;23.600;2023-11-18T00:06:21;15.75;;;6.75;;
40244;SDS011;25963;42.694;23.600;2023-11-18T00:08:47;3.83;;;2.42;;
40244;SDS011;25963;42.694;23.600;2023-11-18T00:11:13;7.03;;;4.25;;
40244;SDS011;25963;42.694;23.600;2023-11-18T00:13:38;2.92;;;2.60;;
40244;SDS011;25963;42.694;23.600;2023-11-18T00:16:08;2.83;;;2.10;;
40244;SDS011;25963;42.694;23.600;2023-11-18T00:18:44;8.00;;;4.22;;
40244;SDS011;25963;42.694;23.600;2023-11-18T00:21:09;9.68;;;4.85;;
40244;SDS011;25963;42.694;23.600;2023-11-18T00:23:35;7.28;;;4.03;;
40244;SDS011;25963;42.694;23.600;2023-11-18T00:26:00;2.17;;;1.67;;
40244;SDS011;25963;42.694;23.600;2023-11-18T00:28:27;2.70;;;1.92;;
40244;SDS011;25963;42.694;23.600;2023-11-18T00:30:52;9.70;;;6.40;;
40244;SDS011;25963;42.694;23.600;2023-11-18T00:33:18;7.43;;;4.68;;
40244;SDS011;25963;42.694;23.600;2023-11-18T00:35:43;3.33;;;1.75;;
40244;SDS011;25963;42.694;23.600;2023-11-18T00:38:10;5.55;;;3.60;;
40244;SDS011;25963;42.694;23.600;2023-11-18T00:40:36;5.13;;;3.20;;
40244;SDS011;25963;42.694;23.600;2023-11-18T00:43:01;4.30;;;3.00;;
40244;SDS011;25963;42.694;23.600;2023-11-18T00:45:27;13.20;;;7.40;;
40244;SDS011;25963;42.694;23.600;2023-11-18T00:47:53;3.22;;;2.42;;
40244;SDS011;25963;42.694;23.600;2023-11-18T00:50:19;4.68;;;2.63;;
40244;SDS011;25963;42.694;23.600;2023-11-18T00:52:45;5.50;;;3.25;;
40244;SDS011;25963;42.694;23.600;2023-11-18T00:55:13;4.70;;;3.10;;
40244;SDS011;25963;42.694;23.600;2023-11-18T00:57:38;3.92;;;2.40;;
40244;SDS011;25963;42.694;23.600;2023-11-18T01:00:05;3.67;;;2.45;;
40244;SDS011;25963;42.694;23.600;2023-11-18T01:02:32;4.30;;;2.17;;
40244;SDS011;25963;42.694;23.600;2023-11-18T01:04:57;3.88;;;3.15;;
40244;SDS011;25963;42.694;23.600;2023-11-18T01:07:23;2.92;;;2.63;;
40244;SDS011;25963;42.694;23.600;2023-11-18T01:09:48;3.58;;;2.00;;
40244;SDS011;25963;42.694;23.600;2023-11-18T01:12:15;2.33;;;2.13;;
40244;SDS011;25963;42.694;23.600;2023-11-18T01:14:40;2.60;;;2.40;;
40244;SDS011;25963;42.694;23.600;2023-11-18T01:17:07;2.45;;;2.08;;
40244;SDS011;25963;42.694;23.600;2023-11-18T01:19:34;2.70;;;2.45;;
40244;SDS011;25963;42.694;23.600;2023-11-18T01:22:00;4.05;;;2.13;;
40244;SDS011;25963;42.694;23.600;2023-11-18T01:24:25;2.67;;;2.40;;
40244;SDS011;25963;42.694;23.600;2023-11-18T01:26:51;3.78;;;2.88;;
40244;SDS011;25963;42.694;23.600;2023-11-18T01:29:16;3.13;;;2.50;;
40244;SDS011;25963;42.694;23.600;2023-11-18T01:31:42;2.60;;;2.40;;
40244;SDS011;25963;42.694;23.600;2023-11-18T01:34:07;5.07;;;2.60;;
40244;SDS011;25963;42.694;23.600;2023-11-18T01:36:33;5.00;;;2.63;;
40244;SDS011;25963;42.694;23.600;2023-11-18T01:38:59;3.53;;;2.75;;
40244;SDS011;25963;42.694;23.600;2023-11-18T01:41:25;3.42;;;2.83;;
40244;SDS011;25963;42.694;23.600;2023-11-18T01:43:50;2.97;;;2.70;;
40244;SDS011;25963;42.694;23.600;2023-11-18T01:46:16;3.58;;;2.95;;
40244;SDS011;25963;42.694;23.600;2023-11-18T01:48:43;4.07;;;3.28;;
40244;SDS011;25963;42.694;23.600;2023-11-18T01:51:09;4.07;;;3.67;;
40244;SDS011;25963;42.694;23.600;2023-11-18T01:53:36;4.90;;;3.35;;
40244;SDS011;25963;42.694;23.600;2023-11-18T01:56:03;3.92;;;3.38;;
40244;SDS011;25963;42.694;23.600;2023-11-18T01:58:31;4.57;;;3.75;;
40244;SDS011;25963;42.694;23.600;2023-11-18T02:00:57;4.43;;;3.67;;
40244;SDS011;25963;42.694;23.600;2023-11-18T02:03:23;3.97;;;3.35;;
40244;SDS011;25963;42.694;23.600;2023-11-18T02:05:50;4.35;;;3.75;;
40244;SDS011;25963;42.694;23.600;2023-11-18T02:08:16;3.90;;;3.10;;
40244;SDS011;25963;42.694;23.600;2023-11-18T02:10:55;4.07;;;3.47;;
40244;SDS011;25963;42.694;23.600;2023-11-18T02:13:24;4.25;;;3.85;;
40244;SDS011;25963;42.694;23.600;2023-11-18T02:15:54;4.22;;;3.83;;
40244;SDS011;25963;42.694;23.600;2023-11-18T02:18:24;4.75;;;3.50;;
40244;SDS011;25963;42.694;23.600;2023-11-18T02:20:55;5.22;;;3.30;;
40244;SDS011;25963;42.694;23.600;2023-11-18T02:23:24;5.20;;;3.50;;
40244;SDS011;25963;42.694;23.600;2023-11-18T02:25:53;3.78;;;3.47;;
40244;SDS011;25963;42.694;23.600;2023-11-18T02:28:19;2.95;;;2.63;;
40244;SDS011;25963;42.694;23.600;2023-11-18T02:30:44;4.53;;;2.85;;
40244;SDS011;25963;42.694;23.600;2023-11-18T02:33:22;2.90;;;2.47;;
40244;SDS011;25963;42.694;23.600;2023-11-18T02:35:59;3.33;;;2.83;;
40244;SDS011;25963;42.694;23.600;2023-11-18T02:38:31;3.05;;;2.70;;
40244;SDS011;25963;42.694;23.600;2023-11-18T02:41:02;3.40;;;3.10;;
40244;SDS011;25963;42.694;23.600;2023-11-18T02:43:35;3.22;;;2.80;;
40244;SDS011;25963;42.694;23.600;2023-11-18T02:46:02;4.45;;;3.30;;
40244;SDS011;25963;42.694;23.600;2023-11-18T02:48:29;4.65;;;3.75;;
40244;SDS011;25963;42.694;23.600;2023-11-18T02:50:57;3.75;;;3.35;;
40244;SDS011;25963;42.694;23.600;2023-11-18T02:53:24;3.85;;;3.45;;
40244;SDS011;25963;42.694;23.600;2023-11-18T02:55:49;3.67;;;3.38;;
40244;SDS011;25963;42.694;23.600;2023-11-18T02:58:17;4.25;;;3.85;;
40244;SDS011;25963;42.694;23.600;2023-11-18T03:00:43;5.35;;;4.15;;
40244;SDS011;25963;42.694;23.600;2023-11-18T03:03:09;4.45;;;4.05;;
40244;SDS011;25963;42.694;23.600;2023-11-18T03:05:36;4.45;;;3.83;;
40244;SDS011;25963;42.694;23.600;2023-11-18T03:08:02;5.00;;;4.50;;
40244;SDS011;25963;42.694;23.600;2023-11-18T03:10:31;6.63;;;5.10;;
40244;SDS011;25963;42.694;23.600;2023-11-18T03:13:00;5.80;;;4.80;;
40244;SDS011;25963;42.694;23.600;2023-11-18T03:15:26;6.43;;;5.13;;
40244;SDS011;25963;42.694;23.600;2023-11-18T03:17:52;6.30;;;5.28;;
40244;SDS011;25963;42.694;23.600;2023-11-18T03:20:21;5.90;;;5.30;;
40244;SDS011;25963;42.694;23.600;2023-11-18T03:22:48;6.85;;;5.93;;
40244;SDS011;25963;42.694;23.600;2023-11-18T03:25:15;5.80;;;5.25;;
40244;SDS011;25963;42.694;23.600;2023-11-18T03:27:41;6.43;;;5.40;;
40244;SDS011;25963;42.694;23.600;2023-11-18T03:30:07;7.22;;;5.55;;
40244;SDS011;25963;42.694;23.600;2023-11-18T03:32:34;6.40;;;5.80;;
40244;SDS011;25963;42.694;23.600;2023-11-18T03:35:04;6.50;;;5.60;;
40244;SDS011;25963;42.694;23.600;2023-11-18T03:37:36;6.07;;;5.43;;
40244;SDS011;25963;42.694;23.600;2023-11-18T03:40:06;6.30;;;5.05;;
40244;SDS011;25963;42.694;23.600;2023-11-18T03:42:33;6.55;;;5.40;;
40244;SDS011;25963;42.694;23.600;2023-11-18T03:44:58;6.90;;;5.65;;
40244;SDS011;25963;42.694;23.600;2023-11-18T03:47:23;6.60;;;5.90;;
40244;SDS011;25963;42.694;23.600;2023-11-18T03:49:52;7.50;;;5.70;;
40244;SDS011;25963;42.694;23.600;2023-11-18T03:52:19;6.53;;;5.35;;
40244;SDS011;25963;42.694;23.600;2023-11-18T03:54:44;6.72;;;5.32;;
40244;SDS011;25963;42.694;23.600;2023-11-18T03:57:10;6.30;;;5.60;;
40244;SDS011;25963;42.694;23.600;2023-11-18T03:59:36;6.22;;;5.63;;
40244;SDS011;25963;42.694;23.600;2023-11-18T04:02:01;6.88;;;5.30;;
40244;SDS011;25963;42.694;23.600;2023-11-18T04:04:26;6.57;;;5.82;;
40244;SDS011;25963;42.694;23.600;2023-11-18T04:06:52;5.82;;;5.07;;
40244;SDS011;25963;42.694;23.600;2023-11-18T04:09:18;7.95;;;6.13;;
40244;SDS011;25963;42.694;23.600;2023-11-18T04:11:43;6.22;;;5.57;;
40244;SDS011;25963;42.694;23.600;2023-11-18T04:14:11;6.20;;;5.35;;
40244;SDS011;25963;42.694;23.600;2023-11-18T04:16:37;8.60;;;6.80;;
40244;SDS011;25963;42.694;23.600;2023-11-18T04:19:05;6.88;;;5.45;;
40244;SDS011;25963;42.694;23.600;2023-11-18T04:21:31;7.03;;;6.32;;
40244;SDS011;25963;42.694;23.600;2023-11-18T04:23:56;6.68;;;6.00;;
40244;SDS011;25963;42.694;23.600;2023-11-18T04:26:22;9.88;;;6.15;;
40244;SDS011;25963;42.694;23.600;2023-11-18T04:28:47;8.68;;;7.38;;
40244;SDS011;25963;42.694;23.600;2023-11-18T04:31:13;7.70;;;6.18;;
40244;SDS011;25963;42.694;23.600;2023-11-18T04:33:39;7.05;;;6.05;;
40244;SDS011;25963;42.694;23.600;2023-11-18T04:36:05;7.43;;;6.20;;
40244;SDS011;25963;42.694;23.600;2023-11-18T04:38:34;7.38;;;6.35;;
40244;SDS011;25963;42.694;23.600;2023-11-18T04:41:00;7.72;;;6.30;;
40244;SDS011;25963;42.694;23.600;2023-11-18T04:43:28;7.68;;;6.35;;
40244;SDS011;25963;42.694;23.600;2023-11-18T04:45:54;8.02;;;6.03;;
40244;SDS011;25963;42.694;23.600;2023-11-18T04:48:19;6.07;;;5.38;;
40244;SDS011;25963;42.694;23.600;2023-11-18T04:50:48;7.25;;;6.20;;
40244;SDS011;25963;42.694;23.600;2023-11-18T04:53:14;7.40;;;5.80;;
40244;SDS011;25963;42.694;23.600;2023-11-18T04:55:39;5.78;;;4.93;;
40244;SDS011;25963;42.694;23.600;2023-11-18T04:58:05;7.70;;;5.53;;
40244;SDS011;25963;42.694;23.600;2023-11-18T05:00:36;5.78;;;4.80;;
40244;SDS011;25963;42.694;23.600;2023-11-18T05:03:05;5.60;;;4.97;;
40244;SDS011;25963;42.694;23.600;2023-11-18T05:05:34;5.60;;;4.88;;
40244;SDS011;25963;42.694;23.600;2023-11-18T05:08:06;5.13;;;4.60;;
40244;SDS011;25963;42.694;23.600;2023-11-18T05:10:33;6.47;;;5.30;;
40244;SDS011;25963;42.694;23.600;2023-11-18T05:13:00;5.72;;;4.60;;
40244;SDS011;25963;42.694;23.600;2023-11-18T05:15:25;6.88;;;5.43;;
40244;SDS011;25963;42.694;23.600;2023-11-18T05:17:51;5.15;;;4.60;;
40244;SDS011;25963;42.694;23.600;2023-11-18T05:20:18;6.47;;;5.53;;
40244;SDS011;25963;42.694;23.600;2023-11-18T05:22:44;5.68;;;5.07;;
40244;SDS011;25963;42.694;23.600;2023-11-18T05:25:09;8.30;;;6.43;;
40244;SDS011;25963;42.694;23.600;2023-11-18T05:27:35;7.78;;;5.53;;
40244;SDS011;25963;42.694;23.600;2023-11-18T05:30:01;6.07;;;5.15;;
40244;SDS011;25963;42.694;23.600;2023-11-18T05:32:28;5.95;;;4.78;;
40244;SDS011;25963;42.694;23.600;2023-11-18T05:34:54;6.03;;;4.95;;
40244;SDS011;25963;42.694;23.600;2023-11-18T05:37:20;5.30;;;4.32;;
40244;SDS011;25963;42.694;23.600;2023-11-18T05:39:46;6.50;;;4.53;;
40244;SDS011;25963;42.694;23.600;2023-11-18T05:42:14;5.47;;;4.00;;
40244;SDS011;25963;42.694;23.600;2023-11-18T05:44:40;4.38;;;3.75;;
40244;SDS011;25963;42.694;23.600;2023-11-18T05:47:07;4.20;;;3.58;;
40244;SDS011;25963;42.694;23.600;2023-11-18T05:49:33;4.55;;;3.85;;
40244;SDS011;25963;42.694;23.600;2023-11-18T05:51:59;4.75;;;3.72;;
40244;SDS011;25963;42.694;23.600;2023-11-18T05:54:25;5.00;;;3.88;;
40244;SDS011;25963;42.694;23.600;2023-11-18T05:56:52;5.63;;;3.85;;
40244;SDS011;25963;42.694;23.600;2023-11-18T05:59:18;4.85;;;4.10;;
40244;SDS011;25963;42.694;23.600;2023-11-18T06:01:44;5.03;;;3.85;;
40244;SDS011;25963;42.694;23.600;2023-11-18T06:04:12;5.50;;;4.00;;
40244;SDS011;25963;42.694;23.600;2023-11-18T06:06:38;5.03;;;3.80;;
40244;SDS011;25963;42.694;23.600;2023-11-18T06:09:03;3.92;;;3.20;;
40244;SDS011;25963;42.694;23.600;2023-11-18T06:11:34;4.20;;;3.58;;
40244;SDS011;25963;42.694;23.600;2023-11-18T06:14:00;3.17;;;2.88;;
40244;SDS011;25963;42.694;23.600;2023-11-18T06:16:27;3.78;;;3.20;;
40244;SDS011;25963;42.694;23.600;2023-11-18T06:18:53;3.42;;;2.75;;
40244;SDS011;25963;42.694;23.600;2023-11-18T06:21:21;3.45;;;2.70;;
40244;SDS011;25963;42.694;23.600;2023-11-18T06:23:53;3.17;;;2.67;;
40244;SDS011;25963;42.694;23.600;2023-11-18T06:26:20;9.05;;;5.45;;
40244;SDS011;25963;42.694;23.600;2023-11-18T06:28:45;2.85;;;2.55;;
40244;SDS011;25963;42.694;23.600;2023-11-18T06:31:15;29.25;;;15.73;;
40244;SDS011;25963;42.694;23.600;2023-11-18T06:33:45;3.17;;;2.47;;
40244;SDS011;25963;42.694;23.600;2023-11-18T06:36:18;3.85;;;1.85;;
40244;SDS011;25963;42.694;23.600;2023-11-18T06:38:51;4.43;;;3.15;;
40244;SDS011;25963;42.694;23.600;2023-11-18T06:41:18;7.55;;;4.93;;
40244;SDS011;25963;42.694;23.600;2023-11-18T06:43:45;5.18;;;3.35;;
40244;SDS011;25963;42.694;23.600;2023-11-18T06:46:24;2.40;;;2.08;;
40244;SDS011;25963;42.694;23.600;2023-11-18T06:48:50;3.15;;;2.33;;
40244;SDS011;25963;42.694;23.600;2023-11-18T06:51:24;4.05;;;2.63;;
40244;SDS011;25963;42.694;23.600;2023-11-18T06:53:53;4.82;;;3.28;;
40244;SDS011;25963;42.694;23.600;2023-11-18T06:56:20;4.05;;;2.63;;
40244;SDS011;25963;42.694;23.600;2023-11-18T06:58:45;4.07;;;3.40;;
40244;SDS011;25963;42.694;23.600;2023-11-18T07:01:14;2.90;;;2.35;;
40244;SDS011;25963;42.694;23.600;2023-11-18T07:03:44;2.15;;;1.65;;
40244;SDS011;25963;42.694;23.600;2023-11-18T07:06:10;3.05;;;2.08;;
40244;SDS011;25963;42.694;23.600;2023-11-18T07:08:39;2.25;;;1.60;;
40244;SDS011;25963;42.694;23.600;2023-11-18T07:11:05;3.08;;;1.27;;
40244;SDS011;25963;42.694;23.600;2023-11-18T07:13:31;1.83;;;1.42;;
40244;SDS011;25963;42.694;23.600;2023-11-18T07:16:00;4.20;;;2.92;;
40244;SDS011;25963;42.694;23.600;2023-11-18T07:18:29;2.38;;;1.50;;
40244;SDS011;25963;42.694;23.600;2023-11-18T07:21:00;2.72;;;1.70;;
40244;SDS011;25963;42.694;23.600;2023-11-18T07:23:28;3.28;;;1.92;;
40244;SDS011;25963;42.694;23.600;2023-11-18T07:25:54;2.92;;;1.85;;
40244;SDS011;25963;42.694;23.600;2023-11-18T07:28:19;1.48;;;1.15;;
40244;SDS011;25963;42.694;23.600;2023-11-18T07:30:45;2.67;;;1.38;;
40244;SDS011;25963;42.694;23.600;2023-11-18T07:33:15;1.40;;;1.13;;
40244;SDS011;25963;42.694;23.600;2023-11-18T07:35:42;2.20;;;1.30;;
40244;SDS011;25963;42.694;23.600;2023-11-18T07:38:08;2.20;;;1.25;;
40244;SDS011;25963;42.694;23.600;2023-11-18T07:40:35;2.55;;;1.30;;
40244;SDS011;25963;42.694;23.600;2023-11-18T07:43:02;1.45;;;1.17;;
40244;SDS011;25963;42.694;23.600;2023-11-18T07:45:28;1.67;;;1.20;;
40244;SDS011;25963;42.694;23.600;2023-11-18T07:47:59;1.17;;;1.08;;
40244;SDS011;25963;42.694;23.600;2023-11-18T07:50:24;1.65;;;1.50;;
40244;SDS011;25963;42.694;23.600;2023-11-18T07:52:51;1.33;;;1.23;;
40244;SDS011;25963;42.694;23.600;2023-11-18T07:55:17;1.77;;;1.35;;
40244;SDS011;25963;42.694;23.600;2023-11-18T07:57:43;2.33;;;1.35;;
40244;SDS011;25963;42.694;23.600;2023-11-18T08:00:09;1.95;;;1.40;;
40244;SDS011;25963;42.694;23.600;2023-11-18T08:02:35;2.22;;;1.65;;
40244;SDS011;25963;42.694;23.600;2023-11-18T08:05:02;4.38;;;3.42;;
40244;SDS011;25963;42.694;23.600;2023-11-18T08:07:34;3.72;;;1.77;;
40244;SDS011;25963;42.694;23.600;2023-11-18T08:10:01;2.67;;;1.20;;
40244;SDS011;25963;42.694;23.600;2023-11-18T08:12:30;1.95;;;1.42;;
40244;SDS011;25963;42.694;23.600;2023-11-18T08:14:56;14.82;;;5.53;;
40244;SDS011;25963;42.694;23.600;2023-11-18T08:17:23;2.50;;;1.52;;
40244;SDS011;25963;42.694;23.600;2023-11-18T08:19:50;1.50;;;1.23;;
40244;SDS011;25963;42.694;23.600;2023-11-18T08:22:16;3.95;;;2.50;;
40244;SDS011;25963;42.694;23.600;2023-11-18T08:24:43;2.70;;;1.42;;
40244;SDS011;25963;42.694;23.600;2023-11-18T08:27:12;5.53;;;2.70;;
40244;SDS011;25963;42.694;23.600;2023-11-18T08:29:37;3.80;;;2.17;;
40244;SDS011;25963;42.694;23.600;2023-11-18T08:32:04;7.47;;;3.13;;
40244;SDS011;25963;42.694;23.600;2023-11-18T08:34:31;2.30;;;1.48;;
40244;SDS011;25963;42.694;23.600;2023-11-18T08:36:58;3.63;;;2.10;;
40244;SDS011;25963;42.694;23.600;2023-11-18T08:39:24;5.88;;;2.83;;
40244;SDS011;25963;42.694;23.600;2023-11-18T08:41:51;1.60;;;1.40;;
40244;SDS011;25963;42.694;23.600;2023-11-18T08:44:17;2.72;;;2.30;;
40244;SDS011;25963;42.694;23.600;2023-11-18T08:46:43;2.60;;;1.83;;
40244;SDS011;25963;42.694;23.600;2023-11-18T08:49:09;3.47;;;1.95;;
40244;SDS011;25963;42.694;23.600;2023-11-18T08:51:42;5.88;;;3.65;;
40244;SDS011;25963;42.694;23.600;2023-11-18T08:54:08;8.20;;;4.82;;
40244;SDS011;25963;42.694;23.600;2023-11-18T08:56:53;4.18;;;2.70;;
40244;SDS011;25963;42.694;23.600;2023-11-18T08:59:22;5.50;;;2.45;;
40244;SDS011;25963;42.694;23.600;2023-11-18T09:01:51;2.20;;;1.52;;
40244;SDS011;25963;42.694;23.600;2023-11-18T09:04:21;7.55;;;3.90;;
40244;SDS011;25963;42.694;23.600;2023-11-18T09:06:55;8.88;;;5.10;;
40244;SDS011;25963;42.694;23.600;2023-11-18T09:09:25;4.90;;;3.35;;
40244;SDS011;25963;42.694;23.600;2023-11-18T09:11:56;4.60;;;2.92;;
40244;SDS011;25963;42.694;23.600;2023-11-18T09:14:25;5.72;;;3.85;;
40244;SDS011;25963;42.694;23.600;2023-11-18T09:16:52;4.28;;;3.88;;
40244;SDS011;25963;42.694;23.600;2023-11-18T09:19:20;2.53;;;2.25;;
40244;SDS011;25963;42.694;23.600;2023-11-18T09:21:46;4.82;;;3.78;;
40244;SDS011;25963;42.694;23.600;2023-11-18T09:24:12;9.15;;;6.40;;
40244;SDS011;25963;42.694;23.600;2023-11-18T09:26:39;2.85;;;2.50;;
40244;SDS011;25963;42.694;23.600;2023-11-18T09:29:05;1.90;;;1.58;;
40244;SDS011;25963;42.694;23.600;2023-11-18T09:31:36;3.05;;;2.05;;
40244;SDS011;25963;42.694;23.600;2023-11-18T09:34:02;1.85;;;1.23;;
40244;SDS011;25963;42.694;23.600;2023-11-18T09:36:31;4.18;;;1.63;;
40244;SDS011;25963;42.694;23.600;2023-11-18T09:38:58;2.00;;;1.80;;
40244;SDS011;25963;42.694;23.600;2023-11-18T09:41:24;2.58;;;2.13;;
40244;SDS011;25963;42.694;23.600;2023-11-18T09:43:52;1.60;;;1.50;;
40244;SDS011;25963;42.694;23.600;2023-11-18T09:46:23;2.88;;;1.90;;
40244;SDS011;25963;42.694;23.600;2023-11-18T09:48:50;2.75;;;2.15;;
40244;SDS011;25963;42.694;23.600;2023-11-18T09:51:25;2.50;;;2.22;;
40244;SDS011;25963;42.694;23.600;2023-11-18T09:53:55;3.03;;;1.85;;
40244;SDS011;25963;42.694;23.600;2023-11-18T09:56:45;1.63;;;1.50;;
40244;SDS011;25963;42.694;23.600;2023-11-18T09:59:58;1.75;;;1.50;;
40244;SDS011;25963;42.694;23.600;2023-11-18T10:02:45;2.00;;;1.33;;
40244;SDS011;25963;42.694;23.600;2023-11-18T10:05:12;2.00;;;1.80;;
40244;SDS011;25963;42.694;23.600;2023-11-18T10:07:41;2.42;;;1.70;;
40244;SDS011;25963;42.694;23.600;2023-11-18T10:10:10;1.80;;;1.40;;
40244;SDS011;25963;42.694;23.600;2023-11-18T10:15:14;2.15;;;1.67;;
40244;SDS011;25963;42.694;23.600;2023-11-18T10:17:42;2.60;;;1.83;;
40244;SDS011;25963;42.694;23.600;2023-11-18T10:20:22;2.08;;;1.65;;
40244;SDS011;25963;42.694;23.600;2023-11-18T10:23:09;1.77;;;1.67;;
40244;SDS011;25963;42.694;23.600;2023-11-18T10:25:56;2.08;;;1.60;;
40244;SDS011;25963;42.694;23.600;2023-11-18T10:28:32;3.53;;;2.05;;
40244;SDS011;25963;42.694;23.600;2023-11-18T10:31:01;1.80;;;1.63;;
40244;SDS011;25963;42.694;23.600;2023-11-18T10:33:38;2.20;;;2.00;;
40244;SDS011;25963;42.694;23.600;2023-11-18T10:36:07;2.08;;;1.90;;
40244;SDS011;25963;42.694;23.600;2023-11-18T10:38:47;2.28;;;1.65;;
40244;SDS011;25963;42.694;23.600;2023-11-18T10:41:19;1.98;;;1.80;;
40244;SDS011;25963;42.694;23.600;2023-11-18T10:43:45;2.58;;;1.67;;
40244;SDS011;25963;42.694;23.600;2023-11-18T10:46:13;1.38;;;1.08;;
40244;SDS011;25963;42.694;23.600;2023-11-18T10:48:49;2.40;;;1.83;;
40244;SDS011;25963;42.694;23.600;2023-11-18T10:51:18;1.55;;;1.45;;
40244;SDS011;25963;42.694;23.600;2023-11-18T10:53:48;1.77;;;1.58;;
40244;SDS011;25963;42.694;23.600;2023-11-18T10:56:27;2.42;;;2.05;;
40244;SDS011;25963;42.694;23.600;2023-11-18T10:58:55;3.92;;;2.60;;
40244;SDS011;25963;42.694;23.600;2023-11-18T11:01:28;2.22;;;1.55;;
40244;SDS011;25963;42.694;23.600;2023-11-18T11:03:56;2.28;;;2.03;;
40244;SDS011;25963;42.694;23.600;2023-11-18T11:06:25;4.10;;;2.92;;
40244;SDS011;25963;42.694;23.600;2023-11-18T11:08:58;2.03;;;1.60;;
40244;SDS011;25963;42.694;23.600;2023-11-18T11:11:24;6.20;;;3.03;;
40244;SDS011;25963;42.694;23.600;2023-11-18T11:13:57;2.95;;;2.20;;
40244;SDS011;25963;42.694;23.600;2023-11-18T11:16:32;8.48;;;5.00;;
40244;SDS011;25963;42.694;23.600;2023-11-18T11:19:04;3.90;;;1.40;;
40244;SDS011;25963;42.694;23.600;2023-11-18T11:21:37;1.70;;;1.60;;
40244;SDS011;25963;42.694;23.600;2023-11-18T11:27:46;3.03;;;1.77;;
40244;SDS011;25963;42.694;23.600;2023-11-18T11:30:32;2.90;;;2.40;;
40244;SDS011;25963;42.694;23.600;2023-11-18T11:36:29;5.38;;;2.90;;
40244;SDS011;25963;42.694;23.600;2023-11-18T11:39:02;1.88;;;1.67;;
40244;SDS011;25963;42.694;23.600;2023-11-18T11:41:31;3.05;;;1.98;;
40244;SDS011;25963;42.694;23.600;2023-11-18T11:44:04;2.17;;;1.63;;
40244;SDS011;25963;42.694;23.600;2023-11-18T11:46:31;2.15;;;1.95;;
40244;SDS011;25963;42.694;23.600;2023-11-18T11:49:02;2.40;;;2.20;;
40244;SDS011;25963;42.694;23.600;2023-11-18T11:51:46;2.35;;;1.80;;
40244;SDS011;25963;42.694;23.600;2023-11-18T11:54:20;3.38;;;2.42;;
40244;SDS011;25963;42.694;23.600;2023-11-18T11:56:49;3.33;;;2.10;;
40244;SDS011;25963;42.694;23.600;2023-11-18T11:59:16;2.50;;;2.20;;
40244;SDS011;25963;42.694;23.600;2023-11-18T12:01:41;3.75;;;2.58;;
40244;SDS011;25963;42.694;23.600;2023-11-18T12:04:12;1.85;;;1.58;;
40244;SDS011;25963;42.694;23.600;2023-11-18T12:06:46;4.13;;;2.15;;
40244;SDS011;25963;42.694;23.600;2023-11-18T12:09:13;4.10;;;2.67;;
40244;SDS011;25963;42.694;23.600;2023-11-18T12:11:45;1.50;;;1.40;;
40244;SDS011;25963;42.694;23.600;2023-11-18T12:14:14;2.20;;;1.75;;
40244;SDS011;25963;42.694;23.600;2023-11-18T12:19:39;2.95;;;1.67;;
40244;SDS011;25963;42.694;23.600;2023-11-18T12:22:19;2.10;;;1.77;;
40244;SDS011;25963;42.694;23.600;2023-11-18T12:35:26;4.85;;;2.08;;
40244;SDS011;25963;42.694;23.600;2023-11-18T12:38:20;2.60;;;2.00;;
40244;SDS011;25963;42.694;23.600;2023-11-18T12:40:56;4.20;;;2.28;;
40244;SDS011;25963;42.694;23.600;2023-11-18T12:49:02;2.30;;;2.10;;
40244;SDS011;25963;42.694;23.600;2023-11-18T12:51:28;3.05;;;2.10;;
40244;SDS011;25963;42.694;23.600;2023-11-18T12:53:56;3.00;;;2.13;;
40244;SDS011;25963;42.694;23.600;2023-11-18T12:56:21;4.05;;;2.40;;
40244;SDS011;25963;42.694;23.600;2023-11-18T12:58:50;4.22;;;2.78;;
40244;SDS011;25963;42.694;23.600;2023-11-18T13:01:16;6.60;;;5.00;;
40244;SDS011;25963;42.694;23.600;2023-11-18T13:03:41;3.40;;;3.10;;
40244;SDS011;25963;42.694;23.600;2023-11-18T13:06:11;4.53;;;2.83;;
40244;SDS011;25963;42.694;23.600;2023-11-18T13:08:37;4.85;;;3.47;;
40244;SDS011;25963;42.694;23.600;2023-11-18T13:11:07;2.40;;;2.20;;
40244;SDS011;25963;42.694;23.600;2023-11-18T13:13:37;3.47;;;2.40;;
40244;SDS011;25963;42.694;23.600;2023-11-18T13:16:06;3.97;;;2.10;;
40244;SDS011;25963;42.694;23.600;2023-11-18T13:18:45;5.60;;;2.33;;
40244;SDS011;25963;42.694;23.600;2023-11-18T13:21:15;2.83;;;2.50;;
40244;SDS011;25963;42.694;23.600;2023-11-18T13:23:41;2.58;;;2.13;;
40244;SDS011;25963;42.694;23.600;2023-11-18T13:26:12;2.70;;;2.50;;
40244;SDS011;25963;42.694;23.600;2023-11-18T13:28:37;4.00;;;3.70;;
40244;SDS011;25963;42.694;23.600;2023-11-18T13:31:04;3.03;;;2.45;;
40244;SDS011;25963;42.694;23.600;2023-11-18T13:33:36;3.28;;;2.60;;
40244;SDS011;25963;42.694;23.600;2023-11-18T13:36:03;4.20;;;2.90;;
40244;SDS011;25963;42.694;23.600;2023-11-18T13:38:30;4.07;;;3.63;;
40244;SDS011;25963;42.694;23.600;2023-11-18T13:40:56;5.00;;;3.95;;
40244;SDS011;25963;42.694;23.600;2023-11-18T13:43:21;5.43;;;4.10;;
40244;SDS011;25963;42.694;23.600;2023-11-18T13:45:53;5.97;;;4.35;;
40244;SDS011;25963;42.694;23.600;2023-11-18T13:48:19;3.78;;;3.30;;
40244;SDS011;25963;42.694;23.600;2023-11-18T13:50:48;5.35;;;4.10;;
40244;SDS011;25963;42.694;23.600;2023-11-18T13:53:15;3.95;;;3.53;;
40244;SDS011;25963;42.694;23.600;2023-11-18T13:55:41;5.93;;;4.47;;
40244;SDS011;25963;42.694;23.600;2023-11-18T13:58:07;4.82;;;4.03;;
40244;SDS011;25963;42.694;23.600;2023-11-18T14:00:35;5.10;;;4.60;;
40244;SDS011;25963;42.694;23.600;2023-11-18T14:03:01;6.15;;;5.55;;
40244;SDS011;25963;42.694;23.600;2023-11-18T14:05:27;5.07;;;4.57;;
40244;SDS011;25963;42.694;23.600;2023-11-18T14:07:53;4.65;;;4.07;;
40244;SDS011;25963;42.694;23.600;2023-11-18T14:10:24;8.18;;;4.63;;
40244;SDS011;25963;42.694;23.600;2023-11-18T14:13:02;6.05;;;4.43;;
40244;SDS011;25963;42.694;23.600;2023-11-18T14:15:30;4.88;;;4.05;;
40244;SDS011;25963;42.694;23.600;2023-11-18T14:18:04;5.72;;;4.93;;
40244;SDS011;25963;42.694;23.600;2023-11-18T14:20:32;7.10;;;5.07;;
40244;SDS011;25963;42.694;23.600;2023-11-18T14:23:00;5.38;;;4.88;;
40244;SDS011;25963;42.694;23.600;2023-11-18T14:25:29;5.40;;;4.82;;
40244;SDS011;25963;42.694;23.600;2023-11-18T14:27:58;5.97;;;5.28;;
40244;SDS011;25963;42.694;23.600;2023-11-18T14:30:24;8.60;;;6.18;;
40244;SDS011;25963;42.694;23.600;2023-11-18T14:32:53;6.57;;;5.88;;
40244;SDS011;25963;42.694;23.600;2023-11-18T14:35:19;6.20;;;5.40;;
40244;SDS011;25963;42.694;23.600;2023-11-18T14:37:45;7.57;;;5.53;;
40244;SDS011;25963;42.694;23.600;2023-11-18T14:40:11;6.90;;;6.03;;
40244;SDS011;25963;42.694;23.600;2023-11-18T14:42:49;6.57;;;5.65;;
40244;SDS011;25963;42.694;23.600;2023-11-18T14:45:16;9.55;;;6.63;;
40244;SDS011;25963;42.694;23.600;2023-11-18T14:47:42;7.68;;;5.78;;
40244;SDS011;25963;42.694;23.600;2023-11-18T14:50:12;7.05;;;5.75;;
40244;SDS011;25963;42.694;23.600;2023-11-18T14:52:42;6.57;;;5.88;;
40244;SDS011;25963;42.694;23.600;2023-11-18T14:55:10;8.45;;;6.25;;
40244;SDS011;25963;42.694;23.600;2023-11-18T14:57:40;7.47;;;6.05;;
40244;SDS011;25963;42.694;23.600;2023-11-18T15:00:06;7.75;;;6.32;;
40244;SDS011;25963;42.694;23.600;2023-11-18T15:02:33;7.82;;;6.28;;
40244;SDS011;25963;42.694;23.600;2023-11-18T15:04:59;8.77;;;7.10;;
40244;SDS011;25963;42.694;23.600;2023-11-18T15:07:25;6.35;;;5.60;;
40244;SDS011;25963;42.694;23.600;2023-11-18T15:09:51;7.55;;;5.95;;